Meteo Giornale » Osservazioni meteo Italia » Cagliari-Elmas

ore: 01:50 - Osservazioni Meteo Cagliari-Elmas
Lat. 39° 15' N Lon. 9° 4' E Alt. 4 metri s.l.m.

sereno Europe/Rome

25 °C

Sereno

Temp. 24 Ore

25 °C

34 °C

Ovest

22.2 Km/h

Dew point 19 °C

Umidità 69 %

Visibilità  10 Km

Il sole sorge alle ore 05:58

Il sole tramonta alle ore 20:55

Data e Ora Cielo e Fenomeni T °C DP °C Um. % Pres. hPa Vis. km Vento km/h
Oggi h: 01:50 sereno Sereno 25 19 69 1008 10 O 22.2
Oggi h: 01:20 sereno Sereno 25 18 65 1008 10 O 25.9
Oggi h: 00:50 sereno Sereno 25 18 65 1008 10 O 25.9
Oggi h: 00:20 sereno Sereno 25 18 65 1008 10 O 20.3
Ieri h: 23:50 sereno Sereno 25 17 61 1008 10 O 13
Ieri h: 23:20 sereno Sereno 26 17 57 1007 10 O 13
Ieri h: 22:50 sereno Sereno 26 17 57 1008 10 O 18.5
Ieri h: 22:20 sereno Sereno 27 16 50 1007 10 O 18.5
Ieri h: 21:50 sereno Sereno 28 15 45 1007 10 O 25.9
Ieri h: 21:20 sereno Sereno 28 15 45 1006 10 O 24
Ieri h: 20:50 sereno Sereno 28 15 45 1006 10 O 29.6
Ieri h: 20:20 sereno Sereno 29 17 48 1006 10 O/NO 29.6
Ieri h: 19:50 sereno Sereno 29 18 51 1005 10 O/NO 33.3
Ieri h: 19:20 sereno Sereno 30 19 51 1005 10 O/NO 33.3
Ieri h: 18:50 sereno Sereno 30 19 51 1005 10 O/NO 31.5
Ieri h: 18:20 poco_nuvoloso Poco Nuvoloso 31 19 48 1005 10 O/NO 29.6
Ieri h: 17:50 poco_nuvoloso Poco Nuvoloso 31 18 45 1005 10 O/NO 33.3
Ieri h: 16:50 poco_nuvoloso Poco Nuvoloso 34 17 36 1005 10 O/SO 27.8
Ieri h: 16:20 poco_nuvoloso Poco Nuvoloso 34 17 36 1005 10 O/NO 25.9
Ieri h: 15:50 poco_nuvoloso Poco Nuvoloso 34 18 38 1005 10 O 25.9
Ieri h: 15:20 poco_nuvoloso Poco Nuvoloso 33 19 43 1005 10 O 25.9
Ieri h: 14:50 poco_nuvoloso Poco Nuvoloso 33 18 41 1005 10 O 31.5
Ieri h: 14:20 poco_nuvoloso Poco Nuvoloso 32 17 40 1006 10 O 25.9
Ieri h: 13:20 coperto_pioggia Pioggia Debole 31 18 45 1006 8 O 18.5
Ieri h: 12:50 sereno Sereno 33 15 33 1006 10 O/NO 13
Ieri h: 12:20 sereno Sereno 34 13 28 1006 10 SO 9.3
Ieri h: 11:50 sereno Sereno 34 13 28 1006 10 N 13
Ieri h: 11:20 sereno Sereno 33 15 33 1006 10 NO 18.5
Ieri h: 10:50 poco_nuvoloso Poco Nuvoloso 29 21 62 1007 10 N 5.5
Ieri h: 10:20 poco_nuvoloso Poco Nuvoloso 30 21 58 1006 10 SE 20.3
Ieri h: 09:50 poco_nuvoloso Poco Nuvoloso 31 18 45 1007 10 E/SE 11.1
Ieri h: 09:20 poco_nuvoloso Poco Nuvoloso 31 18 45 1007 10 N 7.4
Ieri h: 08:50 poco_nuvoloso Poco Nuvoloso 32 18 43 1007 9 S 11.1
Ieri h: 08:20 poco_nuvoloso Poco Nuvoloso 30 18 48 1006 10 S 13
Ieri h: 07:50 poco_nuvoloso Poco Nuvoloso 30 17 45 1006 10 S/SE 14.8
Ieri h: 07:20 poco_nuvoloso Poco Nuvoloso 29 19 54 1005 10 E/SE 14.8
Ieri h: 06:50 poco_nuvoloso Poco Nuvoloso 29 18 51 1005 10 E 16.7
Ieri h: 06:20 sereno Sereno 29 18 51 1005 10 E 20.3
Ieri h: 05:50 sereno Sereno 29 17 48 1005 10 E 16.7
Ieri h: 05:20 sereno Sereno 28 17 51 1006 10 S/SE 11.1
Ieri h: 04:20 sereno Sereno 28 19 58 1006 10 S 11.1
Ieri h: 03:50 sereno Sereno 27 21 69 1007 10 S 11.1
Ieri h: 03:20 poco_nuvoloso Poco Nuvoloso 28 19 58 1007 10 S 13
Ieri h: 02:50 poco_nuvoloso Poco Nuvoloso 28 17 51 1008 10 S/SE 7.4